sensor_id;sensor_type;location;lat;lon;timestamp;pressure;altitude;pressure_sealevel;temperature;humidity
59272;BME280;45043;51.068;7.026;2022-10-16T00:00:36;100015.78;;;11.11;68.90
59272;BME280;45043;51.068;7.026;2022-10-16T00:03:38;100002.25;;;11.12;68.65
59272;BME280;45043;51.068;7.026;2022-10-16T00:06:39;100009.41;;;11.12;68.75
59272;BME280;45043;51.068;7.026;2022-10-16T00:09:39;100010.06;;;11.07;68.77
59272;BME280;45043;51.068;7.026;2022-10-16T00:12:40;100014.75;;;11.05;68.89
59272;BME280;45043;51.068;7.026;2022-10-16T00:15:40;100014.16;;;11.03;69.21
59272;BME280;45043;51.068;7.026;2022-10-16T00:18:43;100026.41;;;11.04;69.29
59272;BME280;45043;51.068;7.026;2022-10-16T00:21:44;100032.56;;;10.98;69.10
59272;BME280;45043;51.068;7.026;2022-10-16T00:24:44;100034.88;;;10.88;69.31
59272;BME280;45043;51.068;7.026;2022-10-16T00:27:44;100043.44;;;10.90;69.31
59272;BME280;45043;51.068;7.026;2022-10-16T00:30:45;100035.47;;;10.83;69.45
59272;BME280;45043;51.068;7.026;2022-10-16T00:33:46;100031.81;;;10.84;69.32
59272;BME280;45043;51.068;7.026;2022-10-16T00:36:46;100028.94;;;10.86;69.54
59272;BME280;45043;51.068;7.026;2022-10-16T00:39:47;100033.22;;;10.87;69.17
59272;BME280;45043;51.068;7.026;2022-10-16T00:42:47;100029.34;;;10.89;69.46
59272;BME280;45043;51.068;7.026;2022-10-16T00:45:48;100025.25;;;10.87;69.26
59272;BME280;45043;51.068;7.026;2022-10-16T00:49:12;100036.25;;;10.97;68.96
59272;BME280;45043;51.068;7.026;2022-10-16T00:52:13;100026.84;;;11.01;68.78
59272;BME280;45043;51.068;7.026;2022-10-16T00:55:14;100029.31;;;11.03;68.83
59272;BME280;45043;51.068;7.026;2022-10-16T00:58:15;100021.91;;;11.05;68.49
59272;BME280;45043;51.068;7.026;2022-10-16T01:01:16;100018.44;;;11.04;68.71
59272;BME280;45043;51.068;7.026;2022-10-16T01:04:16;100016.00;;;11.03;68.70
59272;BME280;45043;51.068;7.026;2022-10-16T01:07:36;100015.63;;;10.99;68.01
59272;BME280;45043;51.068;7.026;2022-10-16T01:10:49;100033.41;;;10.99;68.31
59272;BME280;45043;51.068;7.026;2022-10-16T01:13:55;100032.56;;;10.98;68.35
59272;BME280;45043;51.068;7.026;2022-10-16T01:17:06;100034.22;;;10.99;68.34
59272;BME280;45043;51.068;7.026;2022-10-16T01:20:20;100023.59;;;10.99;68.07
59272;BME280;45043;51.068;7.026;2022-10-16T01:33:01;100043.44;;;10.83;68.74
59272;BME280;45043;51.068;7.026;2022-10-16T01:36:10;100031.41;;;10.81;68.59
59272;BME280;45043;51.068;7.026;2022-10-16T01:39:13;100024.88;;;10.77;68.64
59272;BME280;45043;51.068;7.026;2022-10-16T01:42:24;100030.63;;;10.73;69.23
59272;BME280;45043;51.068;7.026;2022-10-16T01:45:28;100043.28;;;10.71;69.11
59272;BME280;45043;51.068;7.026;2022-10-16T01:48:31;100041.84;;;10.76;68.59
59272;BME280;45043;51.068;7.026;2022-10-16T01:51:34;100035.50;;;10.77;68.79
59272;BME280;45043;51.068;7.026;2022-10-16T01:54:37;100039.19;;;10.76;68.79
59272;BME280;45043;51.068;7.026;2022-10-16T01:57:44;100050.25;;;10.72;69.08
59272;BME280;45043;51.068;7.026;2022-10-16T02:00:47;100042.69;;;10.69;69.10
59272;BME280;45043;51.068;7.026;2022-10-16T02:03:50;100054.75;;;10.65;69.08
59272;BME280;45043;51.068;7.026;2022-10-16T02:06:53;100056.75;;;10.63;69.46
59272;BME280;45043;51.068;7.026;2022-10-16T02:09:54;100044.91;;;10.59;69.40
59272;BME280;45043;51.068;7.026;2022-10-16T02:13:02;100041.03;;;10.55;69.32
59272;BME280;45043;51.068;7.026;2022-10-16T02:16:04;100046.13;;;10.57;69.65
59272;BME280;45043;51.068;7.026;2022-10-16T02:19:05;100044.50;;;10.62;69.66
59272;BME280;45043;51.068;7.026;2022-10-16T02:22:08;100059.22;;;10.65;69.39
59272;BME280;45043;51.068;7.026;2022-10-16T02:25:27;100063.91;;;10.63;69.46
59272;BME280;45043;51.068;7.026;2022-10-16T02:28:38;100056.38;;;10.66;69.63
59272;BME280;45043;51.068;7.026;2022-10-16T02:31:44;100059.66;;;10.68;69.57
59272;BME280;45043;51.068;7.026;2022-10-16T02:34:49;100063.72;;;10.71;69.71
59272;BME280;45043;51.068;7.026;2022-10-16T02:37:50;100065.56;;;10.70;69.86
59272;BME280;45043;51.068;7.026;2022-10-16T02:40:51;100068.22;;;10.70;69.63
59272;BME280;45043;51.068;7.026;2022-10-16T02:43:52;100065.16;;;10.73;69.40
59272;BME280;45043;51.068;7.026;2022-10-16T02:46:52;100064.94;;;10.75;69.59
59272;BME280;45043;51.068;7.026;2022-10-16T02:49:53;100055.97;;;10.76;69.61
59272;BME280;45043;51.068;7.026;2022-10-16T02:52:54;100054.72;;;10.72;69.64
59272;BME280;45043;51.068;7.026;2022-10-16T02:55:54;100046.97;;;10.70;69.70
59272;BME280;45043;51.068;7.026;2022-10-16T02:58:54;100050.25;;;10.72;69.57
59272;BME280;45043;51.068;7.026;2022-10-16T03:01:55;100073.31;;;10.79;69.56
59272;BME280;45043;51.068;7.026;2022-10-16T03:04:55;100064.13;;;10.75;69.70
59272;BME280;45043;51.068;7.026;2022-10-16T03:07:56;100063.09;;;10.76;69.40
59272;BME280;45043;51.068;7.026;2022-10-16T03:11:00;100066.59;;;10.69;69.55
59272;BME280;45043;51.068;7.026;2022-10-16T03:14:02;100067.63;;;10.68;69.53
59272;BME280;45043;51.068;7.026;2022-10-16T03:17:03;100050.84;;;10.68;69.69
59272;BME280;45043;51.068;7.026;2022-10-16T03:20:03;100041.03;;;10.62;69.53
59272;BME280;45043;51.068;7.026;2022-10-16T03:23:04;100033.88;;;10.62;69.59
59272;BME280;45043;51.068;7.026;2022-10-16T03:26:05;100025.91;;;10.62;69.24
59272;BME280;45043;51.068;7.026;2022-10-16T03:29:05;100046.13;;;10.63;69.46
59272;BME280;45043;51.068;7.026;2022-10-16T03:32:06;100047.75;;;10.64;69.23
59272;BME280;45043;51.068;7.026;2022-10-16T03:35:07;100053.50;;;10.61;69.43
59272;BME280;45043;51.068;7.026;2022-10-16T03:38:07;100048.78;;;10.63;69.26
59272;BME280;45043;51.068;7.026;2022-10-16T03:41:08;100062.88;;;10.57;69.48
59272;BME280;45043;51.068;7.026;2022-10-16T03:44:08;100056.56;;;10.58;69.30
59272;BME280;45043;51.068;7.026;2022-10-16T03:47:09;100062.88;;;10.57;69.33
59272;BME280;45043;51.068;7.026;2022-10-16T03:50:09;100070.25;;;10.55;69.60
59272;BME280;45043;51.068;7.026;2022-10-16T03:53:10;100061.47;;;10.61;69.76
59272;BME280;45043;51.068;7.026;2022-10-16T03:56:10;100061.25;;;10.56;69.95
59272;BME280;45043;51.068;7.026;2022-10-16T03:59:11;100084.56;;;10.54;69.86
59272;BME280;45043;51.068;7.026;2022-10-16T04:02:11;100088.22;;;10.53;70.45
59272;BME280;45043;51.068;7.026;2022-10-16T04:05:12;100084.97;;;10.51;70.18
59272;BME280;45043;51.068;7.026;2022-10-16T04:08:12;100097.84;;;10.54;70.05
59272;BME280;45043;51.068;7.026;2022-10-16T04:11:13;100080.88;;;10.55;69.94
59272;BME280;45043;51.068;7.026;2022-10-16T04:14:13;100105.59;;;10.56;69.92
59272;BME280;45043;51.068;7.026;2022-10-16T04:17:14;100105.59;;;10.56;70.20
59272;BME280;45043;51.068;7.026;2022-10-16T04:20:14;100091.91;;;10.52;70.14
59272;BME280;45043;51.068;7.026;2022-10-16T04:23:15;100100.91;;;10.51;70.47
59272;BME280;45043;51.068;7.026;2022-10-16T04:26:15;100105.00;;;10.47;70.36
59272;BME280;45043;51.068;7.026;2022-10-16T04:29:16;100103.97;;;10.48;70.52
59272;BME280;45043;51.068;7.026;2022-10-16T04:32:16;100118.88;;;10.49;70.39
59272;BME280;45043;51.068;7.026;2022-10-16T04:35:18;100115.63;;;10.47;70.37
59272;BME280;45043;51.068;7.026;2022-10-16T04:38:19;100113.16;;;10.45;70.35
59272;BME280;45043;51.068;7.026;2022-10-16T04:41:19;100106.03;;;10.39;70.08
59272;BME280;45043;51.068;7.026;2022-10-16T04:44:20;100107.66;;;10.47;70.32
59272;BME280;45043;51.068;7.026;2022-10-16T04:47:20;100112.34;;;10.45;70.24
59272;BME280;45043;51.068;7.026;2022-10-16T04:50:20;100122.56;;;10.41;70.19
59272;BME280;45043;51.068;7.026;2022-10-16T04:53:38;100106.84;;;10.40;70.19
59272;BME280;45043;51.068;7.026;2022-10-16T04:56:39;100109.50;;;10.40;69.87
59272;BME280;45043;51.068;7.026;2022-10-16T04:59:50;100132.75;;;10.38;69.99
59272;BME280;45043;51.068;7.026;2022-10-16T05:02:51;100140.13;;;10.36;70.26
59272;BME280;45043;51.068;7.026;2022-10-16T05:05:51;100126.63;;;10.37;70.23
59272;BME280;45043;51.068;7.026;2022-10-16T05:08:52;100125.41;;;10.33;70.57
59272;BME280;45043;51.068;7.026;2022-10-16T05:11:52;100134.00;;;10.29;70.41
59272;BME280;45043;51.068;7.026;2022-10-16T05:14:53;100145.22;;;10.24;70.64
59272;BME280;45043;51.068;7.026;2022-10-16T05:17:58;100142.75;;;10.22;70.82
59272;BME280;45043;51.068;7.026;2022-10-16T05:20:59;100148.28;;;10.28;70.72
59272;BME280;45043;51.068;7.026;2022-10-16T05:23:59;100150.09;;;10.27;70.57
59272;BME280;45043;51.068;7.026;2022-10-16T05:26:59;100166.25;;;10.25;70.60
59272;BME280;45043;51.068;7.026;2022-10-16T05:30:00;100155.84;;;10.24;70.57
59272;BME280;45043;51.068;7.026;2022-10-16T05:33:01;100155.84;;;10.24;70.80
59272;BME280;45043;51.068;7.026;2022-10-16T05:36:03;100163.44;;;10.47;70.87
59272;BME280;45043;51.068;7.026;2022-10-16T05:39:04;100167.53;;;10.69;71.15
59272;BME280;45043;51.068;7.026;2022-10-16T05:42:05;100172.44;;;10.92;70.11
59272;BME280;45043;51.068;7.026;2022-10-16T05:45:07;100167.72;;;11.01;70.30
59272;BME280;45043;51.068;7.026;2022-10-16T05:48:08;100179.78;;;11.17;70.29
59272;BME280;45043;51.068;7.026;2022-10-16T05:51:11;100174.22;;;11.32;69.87
59272;BME280;45043;51.068;7.026;2022-10-16T05:54:12;100179.72;;;11.30;69.26
59272;BME280;45043;51.068;7.026;2022-10-16T05:57:13;100181.34;;;11.44;68.69
59272;BME280;45043;51.068;7.026;2022-10-16T06:00:13;100191.72;;;11.59;67.82
59272;BME280;45043;51.068;7.026;2022-10-16T06:03:14;100199.53;;;11.54;67.99
59272;BME280;45043;51.068;7.026;2022-10-16T06:06:16;100207.44;;;11.67;67.14
59272;BME280;45043;51.068;7.026;2022-10-16T06:09:18;100197.66;;;11.61;66.76
59272;BME280;45043;51.068;7.026;2022-10-16T06:12:19;100202.53;;;11.64;66.67
59272;BME280;45043;51.068;7.026;2022-10-16T06:15:20;100215.22;;;11.69;67.14
59272;BME280;45043;51.068;7.026;2022-10-16T06:18:20;100216.06;;;11.76;66.93
59272;BME280;45043;51.068;7.026;2022-10-16T06:21:24;100215.34;;;11.94;66.05
59272;BME280;45043;51.068;7.026;2022-10-16T06:24:25;100228.66;;;11.94;65.86
59272;BME280;45043;51.068;7.026;2022-10-16T06:27:26;100226.22;;;11.92;65.69
59272;BME280;45043;51.068;7.026;2022-10-16T06:30:26;100230.25;;;12.02;65.53
59272;BME280;45043;51.068;7.026;2022-10-16T06:33:26;100222.66;;;12.12;65.20
59272;BME280;45043;51.068;7.026;2022-10-16T06:36:27;100225.69;;;12.15;65.18
59272;BME280;45043;51.068;7.026;2022-10-16T06:39:28;100224.25;;;12.20;64.41
59272;BME280;45043;51.068;7.026;2022-10-16T06:42:28;100227.72;;;12.20;64.32
59272;BME280;45043;51.068;7.026;2022-10-16T06:45:29;100250.03;;;12.26;64.64
59272;BME280;45043;51.068;7.026;2022-10-16T06:48:29;100251.41;;;12.35;64.22
59272;BME280;45043;51.068;7.026;2022-10-16T06:51:30;100265.34;;;12.37;64.53
59272;BME280;45043;51.068;7.026;2022-10-16T06:54:32;100270.66;;;12.37;64.04
59272;BME280;45043;51.068;7.026;2022-10-16T06:57:32;100272.28;;;12.38;64.29
59272;BME280;45043;51.068;7.026;2022-10-16T07:00:33;100265.34;;;12.37;63.98
59272;BME280;45043;51.068;7.026;2022-10-16T07:03:38;100277.63;;;12.38;64.27
59272;BME280;45043;51.068;7.026;2022-10-16T07:06:38;100278.91;;;12.29;64.54
59272;BME280;45043;51.068;7.026;2022-10-16T07:09:40;100293.19;;;12.41;64.20
59272;BME280;45043;51.068;7.026;2022-10-16T07:12:40;100288.47;;;12.43;63.89
59272;BME280;45043;51.068;7.026;2022-10-16T07:15:41;100296.19;;;12.58;63.48
59272;BME280;45043;51.068;7.026;2022-10-16T07:18:43;100303.53;;;12.62;63.30
59272;BME280;45043;51.068;7.026;2022-10-16T07:21:45;100311.09;;;12.65;63.18
59272;BME280;45043;51.068;7.026;2022-10-16T07:24:46;100323.34;;;12.73;63.27
59272;BME280;45043;51.068;7.026;2022-10-16T07:27:47;100326.81;;;12.80;63.19
59272;BME280;45043;51.068;7.026;2022-10-16T07:30:48;100337.44;;;12.87;62.71
59272;BME280;45043;51.068;7.026;2022-10-16T07:33:48;100341.13;;;12.86;62.83
59272;BME280;45043;51.068;7.026;2022-10-16T07:36:50;100339.69;;;12.83;62.76
59272;BME280;45043;51.068;7.026;2022-10-16T07:39:51;100336.44;;;12.75;62.56
59272;BME280;45043;51.068;7.026;2022-10-16T07:42:51;100344.06;;;12.78;62.74
59272;BME280;45043;51.068;7.026;2022-10-16T07:45:52;100346.50;;;12.79;62.61
59272;BME280;45043;51.068;7.026;2022-10-16T07:48:53;100353.28;;;12.75;62.64
59272;BME280;45043;51.068;7.026;2022-10-16T07:51:54;100354.94;;;12.70;62.99
59272;BME280;45043;51.068;7.026;2022-10-16T07:54:54;100364.41;;;12.65;63.22
59272;BME280;45043;51.068;7.026;2022-10-16T07:57:55;100354.97;;;12.63;63.38
59272;BME280;45043;51.068;7.026;2022-10-16T08:00:56;100366.41;;;12.70;63.18
59272;BME280;45043;51.068;7.026;2022-10-16T08:03:57;100373.78;;;12.75;63.20
59272;BME280;45043;51.068;7.026;2022-10-16T08:06:58;100380.75;;;12.76;63.39
59272;BME280;45043;51.068;7.026;2022-10-16T08:09:58;100386.72;;;12.78;63.38
59272;BME280;45043;51.068;7.026;2022-10-16T08:12:59;100391.97;;;12.91;62.90
59272;BME280;45043;51.068;7.026;2022-10-16T08:15:59;100390.06;;;12.98;62.93
59272;BME280;45043;51.068;7.026;2022-10-16T08:19:00;100395.59;;;13.03;62.39
59272;BME280;45043;51.068;7.026;2022-10-16T08:22:00;100390.81;;;13.12;62.17
59272;BME280;45043;51.068;7.026;2022-10-16T08:25:01;100399.59;;;13.19;61.53
59272;BME280;45043;51.068;7.026;2022-10-16T08:28:07;100399.41;;;13.21;61.66
59272;BME280;45043;51.068;7.026;2022-10-16T08:31:13;100412.06;;;13.25;61.02
59272;BME280;45043;51.068;7.026;2022-10-16T08:34:14;100409.19;;;13.27;61.00
59272;BME280;45043;51.068;7.026;2022-10-16T08:37:15;100414.09;;;13.30;60.19
59272;BME280;45043;51.068;7.026;2022-10-16T08:47:20;100434.13;;;13.39;59.05
59272;BME280;45043;51.068;7.026;2022-10-16T08:50:26;100430.09;;;13.30;58.56
59272;BME280;45043;51.068;7.026;2022-10-16T08:53:33;100442.28;;;13.19;58.17
59272;BME280;45043;51.068;7.026;2022-10-16T08:56:38;100440.06;;;13.09;58.63
59272;BME280;45043;51.068;7.026;2022-10-16T08:59:39;100446.63;;;13.13;58.57
59272;BME280;45043;51.068;7.026;2022-10-16T09:06:02;100446.16;;;13.17;58.01
59272;BME280;45043;51.068;7.026;2022-10-16T09:16:06;100442.44;;;13.24;56.88
59272;BME280;45043;51.068;7.026;2022-10-16T09:19:24;100444.06;;;13.32;55.89
59272;BME280;45043;51.068;7.026;2022-10-16T09:22:28;100451.44;;;13.30;55.48
59272;BME280;45043;51.068;7.026;2022-10-16T09:25:32;100442.41;;;13.31;55.39
59272;BME280;45043;51.068;7.026;2022-10-16T09:28:34;100448.13;;;13.34;54.53
59272;BME280;45043;51.068;7.026;2022-10-16T09:31:36;100458.75;;;13.41;54.56
59272;BME280;45043;51.068;7.026;2022-10-16T09:34:41;100450.91;;;13.46;54.56
59272;BME280;45043;51.068;7.026;2022-10-16T09:37:44;100456.44;;;13.51;54.26
59272;BME280;45043;51.068;7.026;2022-10-16T09:40:46;100456.00;;;13.54;54.11
59272;BME280;45043;51.068;7.026;2022-10-16T09:43:52;100459.44;;;13.61;53.64
59272;BME280;45043;51.068;7.026;2022-10-16T09:47:04;100464.31;;;13.65;53.65
59272;BME280;45043;51.068;7.026;2022-10-16T09:50:20;100459.78;;;13.72;53.63
59272;BME280;45043;51.068;7.026;2022-10-16T09:53:22;100471.09;;;13.74;53.75
59272;BME280;45043;51.068;7.026;2022-10-16T09:56:26;100461.75;;;13.83;53.51
59272;BME280;45043;51.068;7.026;2022-10-16T09:59:27;100461.31;;;13.86;53.42
59272;BME280;45043;51.068;7.026;2022-10-16T10:02:33;100458.69;;;14.04;52.99
59272;BME280;45043;51.068;7.026;2022-10-16T10:05:34;100474.72;;;14.04;52.25
59272;BME280;45043;51.068;7.026;2022-10-16T10:08:35;100488.31;;;14.03;51.78
59272;BME280;45043;51.068;7.026;2022-10-16T10:11:49;100471.91;;;13.99;51.21
59272;BME280;45043;51.068;7.026;2022-10-16T10:14:55;100476.34;;;14.05;51.88
59272;BME280;45043;51.068;7.026;2022-10-16T10:17:57;100459.00;;;14.15;51.67
59272;BME280;45043;51.068;7.026;2022-10-16T10:21:00;100456.44;;;14.26;51.94
59272;BME280;45043;51.068;7.026;2022-10-16T10:24:02;100474.63;;;14.36;51.37
59272;BME280;45043;51.068;7.026;2022-10-16T10:27:08;100471.97;;;14.36;50.99
59272;BME280;45043;51.068;7.026;2022-10-16T10:30:22;100457.13;;;14.40;50.80
59272;BME280;45043;51.068;7.026;2022-10-16T10:40:41;100462.28;;;14.53;50.67
59272;BME280;45043;51.068;7.026;2022-10-16T10:44:11;100474.66;;;14.54;50.81
59272;BME280;45043;51.068;7.026;2022-10-16T10:50:43;100471.75;;;14.56;50.36
59272;BME280;45043;51.068;7.026;2022-10-16T10:57:37;100472.56;;;14.56;50.33
59272;BME280;45043;51.068;7.026;2022-10-16T11:07:20;100462.38;;;14.83;50.13
59272;BME280;45043;51.068;7.026;2022-10-16T11:10:28;100467.56;;;14.97;50.31
59272;BME280;45043;51.068;7.026;2022-10-16T11:13:42;100466.31;;;14.99;48.98
59272;BME280;45043;51.068;7.026;2022-10-16T11:16:52;100461.78;;;15.00;48.68
59272;BME280;45043;51.068;7.026;2022-10-16T11:20:00;100466.22;;;15.06;49.17
59272;BME280;45043;51.068;7.026;2022-10-16T11:23:18;100474.66;;;15.21;48.19
59272;BME280;45043;51.068;7.026;2022-10-16T11:26:30;100470.72;;;15.36;48.04
59272;BME280;45043;51.068;7.026;2022-10-16T11:29:47;100484.81;;;15.31;48.33
59272;BME280;45043;51.068;7.026;2022-10-16T11:36:17;100474.22;;;15.54;46.43
59272;BME280;45043;51.068;7.026;2022-10-16T11:39:25;100481.47;;;15.66;45.99
59272;BME280;45043;51.068;7.026;2022-10-16T11:42:32;100480.06;;;15.75;45.98
59272;BME280;45043;51.068;7.026;2022-10-16T11:45:49;100470.75;;;15.89;45.54
59272;BME280;45043;51.068;7.026;2022-10-16T11:48:59;100479.97;;;16.05;45.96
59272;BME280;45043;51.068;7.026;2022-10-16T11:52:17;100479.06;;;16.11;45.58
59272;BME280;45043;51.068;7.026;2022-10-16T11:55:23;100481.84;;;16.16;46.12
59272;BME280;45043;51.068;7.026;2022-10-16T12:01:46;100488.75;;;16.47;44.67
59272;BME280;45043;51.068;7.026;2022-10-16T12:05:01;100494.50;;;16.80;43.94
59272;BME280;45043;51.068;7.026;2022-10-16T12:08:10;100492.56;;;17.04;42.95
59272;BME280;45043;51.068;7.026;2022-10-16T12:11:32;100490.16;;;16.90;43.43
59272;BME280;45043;51.068;7.026;2022-10-16T12:14:37;100484.56;;;16.80;43.63
59272;BME280;45043;51.068;7.026;2022-10-16T12:17:38;100499.16;;;16.72;44.12
59272;BME280;45043;51.068;7.026;2022-10-16T12:20:39;100503.41;;;16.57;43.08
59272;BME280;45043;51.068;7.026;2022-10-16T12:24:02;100499.22;;;16.37;43.35
59272;BME280;45043;51.068;7.026;2022-10-16T12:27:06;100499.22;;;16.37;43.96
59272;BME280;45043;51.068;7.026;2022-10-16T12:30:25;100498.41;;;16.37;43.72
59272;BME280;45043;51.068;7.026;2022-10-16T12:33:56;100496.88;;;16.29;43.70
59272;BME280;45043;51.068;7.026;2022-10-16T12:37:12;100489.66;;;16.41;43.96
59272;BME280;45043;51.068;7.026;2022-10-16T12:40:16;100498.03;;;16.57;43.63
59272;BME280;45043;51.068;7.026;2022-10-16T12:49:37;100470.16;;;17.72;42.49
59272;BME280;45043;51.068;7.026;2022-10-16T12:52:39;100467.34;;;18.34;41.46
59272;BME280;45043;51.068;7.026;2022-10-16T12:55:57;100480.41;;;18.86;39.71
59272;BME280;45043;51.068;7.026;2022-10-16T12:59:12;100470.38;;;19.31;39.31
59272;BME280;45043;51.068;7.026;2022-10-16T13:09:35;100475.06;;;20.05;37.79
59272;BME280;45043;51.068;7.026;2022-10-16T13:12:50;100470.28;;;19.80;37.50
59272;BME280;45043;51.068;7.026;2022-10-16T13:22:24;100476.66;;;20.01;37.10
59272;BME280;45043;51.068;7.026;2022-10-16T13:25:31;100470.59;;;19.83;36.89
59272;BME280;45043;51.068;7.026;2022-10-16T13:28:37;100478.41;;;19.48;37.45
59272;BME280;45043;51.068;7.026;2022-10-16T13:31:38;100478.66;;;19.24;37.83
59272;BME280;45043;51.068;7.026;2022-10-16T13:34:47;100484.66;;;19.31;38.08
59272;BME280;45043;51.068;7.026;2022-10-16T13:37:49;100477.94;;;19.56;37.24
59272;BME280;45043;51.068;7.026;2022-10-16T13:41:02;100474.47;;;19.98;36.88
59272;BME280;45043;51.068;7.026;2022-10-16T13:44:03;100476.88;;;20.31;36.68
59272;BME280;45043;51.068;7.026;2022-10-16T13:47:05;100492.16;;;20.63;35.83
59272;BME280;45043;51.068;7.026;2022-10-16T13:50:12;100487.69;;;20.94;34.94
59272;BME280;45043;51.068;7.026;2022-10-16T13:53:13;100482.09;;;21.16;34.65
59272;BME280;45043;51.068;7.026;2022-10-16T13:56:18;100485.28;;;20.98;35.40
59272;BME280;45043;51.068;7.026;2022-10-16T13:59:32;100473.16;;;20.43;35.74
59272;BME280;45043;51.068;7.026;2022-10-16T14:02:35;100472.38;;;20.05;36.54
59272;BME280;45043;51.068;7.026;2022-10-16T14:05:49;100472.16;;;19.74;36.60
59272;BME280;45043;51.068;7.026;2022-10-16T14:09:18;100479.88;;;19.38;37.58
59272;BME280;45043;51.068;7.026;2022-10-16T14:12:21;100474.59;;;19.76;37.59
59272;BME280;45043;51.068;7.026;2022-10-16T14:15:23;100479.66;;;19.72;37.95
59272;BME280;45043;51.068;7.026;2022-10-16T14:18:25;100488.09;;;19.49;38.10
59272;BME280;45043;51.068;7.026;2022-10-16T14:21:27;100496.47;;;19.25;38.45
59272;BME280;45043;51.068;7.026;2022-10-16T14:24:33;100494.13;;;19.07;38.79
59272;BME280;45043;51.068;7.026;2022-10-16T14:27:35;100494.38;;;18.83;38.94
59272;BME280;45043;51.068;7.026;2022-10-16T14:30:37;100488.47;;;18.64;39.74
59272;BME280;45043;51.068;7.026;2022-10-16T14:33:37;100472.44;;;18.53;40.55
59272;BME280;45043;51.068;7.026;2022-10-16T14:36:40;100481.13;;;18.38;40.93
59272;BME280;45043;51.068;7.026;2022-10-16T14:39:41;100478.72;;;18.19;41.31
59272;BME280;45043;51.068;7.026;2022-10-16T14:42:43;100471.41;;;18.15;41.78
59272;BME280;45043;51.068;7.026;2022-10-16T14:45:50;100469.94;;;18.07;42.13
59272;BME280;45043;51.068;7.026;2022-10-16T14:49:03;100468.97;;;17.97;42.64
59272;BME280;45043;51.068;7.026;2022-10-16T14:52:09;100472.44;;;17.80;42.73
59272;BME280;45043;51.068;7.026;2022-10-16T14:55:11;100479.63;;;17.75;43.09
59272;BME280;45043;51.068;7.026;2022-10-16T14:58:18;100482.78;;;17.71;43.64
59272;BME280;45043;51.068;7.026;2022-10-16T15:01:20;100488.66;;;17.68;43.76
59272;BME280;45043;51.068;7.026;2022-10-16T15:04:20;100478.03;;;17.62;44.36
59272;BME280;45043;51.068;7.026;2022-10-16T15:07:21;100489.84;;;17.61;44.71
59272;BME280;45043;51.068;7.026;2022-10-16T15:10:24;100486.03;;;17.57;44.67
59272;BME280;45043;51.068;7.026;2022-10-16T15:13:25;100487.50;;;17.48;45.65
59272;BME280;45043;51.068;7.026;2022-10-16T15:16:26;100501.50;;;17.50;45.79
59272;BME280;45043;51.068;7.026;2022-10-16T15:19:26;100485.97;;;17.52;45.63
59272;BME280;45043;51.068;7.026;2022-10-16T15:22:27;100486.50;;;17.54;45.67
59272;BME280;45043;51.068;7.026;2022-10-16T15:25:37;100491.81;;;17.49;46.30
59272;BME280;45043;51.068;7.026;2022-10-16T15:28:39;100490.66;;;17.44;46.28
59272;BME280;45043;51.068;7.026;2022-10-16T15:31:40;100490.00;;;17.37;46.88
59272;BME280;45043;51.068;7.026;2022-10-16T15:34:42;100491.22;;;17.30;46.68
59272;BME280;45043;51.068;7.026;2022-10-16T15:37:43;100490.19;;;17.19;47.19
59272;BME280;45043;51.068;7.026;2022-10-16T15:40:47;100493.72;;;17.08;47.81
59272;BME280;45043;51.068;7.026;2022-10-16T15:43:48;100490.59;;;16.99;48.00
59272;BME280;45043;51.068;7.026;2022-10-16T15:46:50;100482.56;;;16.87;48.48
59272;BME280;45043;51.068;7.026;2022-10-16T15:49:50;100473.84;;;16.80;48.79
59272;BME280;45043;51.068;7.026;2022-10-16T15:52:51;100464.28;;;16.72;49.15
59272;BME280;45043;51.068;7.026;2022-10-16T15:55:51;100464.31;;;16.61;49.52
59272;BME280;45043;51.068;7.026;2022-10-16T15:58:52;100476.59;;;16.57;49.42
59272;BME280;45043;51.068;7.026;2022-10-16T16:01:54;100474.41;;;16.42;49.58
59272;BME280;45043;51.068;7.026;2022-10-16T16:04:54;100455.16;;;16.10;50.52
59272;BME280;45043;51.068;7.026;2022-10-16T16:07:54;100459.59;;;16.04;51.10
59272;BME280;45043;51.068;7.026;2022-10-16T16:11:09;100461.56;;;15.97;51.16
59272;BME280;45043;51.068;7.026;2022-10-16T16:14:12;100459.44;;;15.87;52.13
59272;BME280;45043;51.068;7.026;2022-10-16T16:17:13;100451.66;;;15.74;52.41
59272;BME280;45043;51.068;7.026;2022-10-16T16:20:14;100463.28;;;15.68;52.71
59272;BME280;45043;51.068;7.026;2022-10-16T16:23:15;100462.94;;;15.64;53.04
59272;BME280;45043;51.068;7.026;2022-10-16T16:29:26;100457.84;;;15.44;53.64
59272;BME280;45043;51.068;7.026;2022-10-16T16:32:27;100465.75;;;15.39;54.07
59272;BME280;45043;51.068;7.026;2022-10-16T16:35:27;100464.56;;;15.35;54.36
59272;BME280;45043;51.068;7.026;2022-10-16T16:38:29;100471.31;;;15.26;55.14
59272;BME280;45043;51.068;7.026;2022-10-16T16:41:30;100463.00;;;15.16;55.52
59272;BME280;45043;51.068;7.026;2022-10-16T16:44:30;100479.81;;;15.04;55.78
59272;BME280;45043;51.068;7.026;2022-10-16T16:47:31;100488.91;;;15.03;55.94
59272;BME280;45043;51.068;7.026;2022-10-16T16:50:35;100484.81;;;15.01;56.27
59272;BME280;45043;51.068;7.026;2022-10-16T16:53:36;100484.88;;;14.94;57.03
59272;BME280;45043;51.068;7.026;2022-10-16T16:56:36;100488.22;;;14.90;56.81
59272;BME280;45043;51.068;7.026;2022-10-16T16:59:37;100492.34;;;14.92;56.90
59272;BME280;45043;51.068;7.026;2022-10-16T17:02:37;100485.19;;;14.86;57.80
59272;BME280;45043;51.068;7.026;2022-10-16T17:05:43;100490.41;;;14.81;57.95
59272;BME280;45043;51.068;7.026;2022-10-16T17:08:44;100492.47;;;14.79;58.11
59272;BME280;45043;51.068;7.026;2022-10-16T17:11:44;100486.00;;;14.68;58.01
59272;BME280;45043;51.068;7.026;2022-10-16T17:14:46;100482.16;;;14.64;58.54
59272;BME280;45043;51.068;7.026;2022-10-16T17:17:46;100493.72;;;14.58;58.84